createdAt,value
2022-09-23T00:01:19.805Z,100.00
2022-09-23T00:03:47.345Z,100.00
2022-09-23T00:06:21.967Z,100.00
2022-09-23T00:08:50.592Z,100.00
2022-09-23T00:11:20.905Z,100.00
2022-09-23T00:13:50.252Z,100.00
2022-09-23T00:16:26.687Z,100.00
2022-09-23T00:18:54.670Z,100.00
2022-09-23T00:21:23.020Z,100.00
2022-09-23T00:23:50.321Z,100.00
2022-09-23T00:26:20.736Z,100.00
2022-09-23T00:28:49.607Z,100.00
2022-09-23T00:31:21.479Z,100.00
2022-09-23T00:33:59.837Z,100.00
2022-09-23T00:36:28.421Z,100.00
2022-09-23T00:38:56.124Z,100.00
2022-09-23T00:41:24.467Z,100.00
2022-09-23T00:43:58.720Z,100.00
2022-09-23T00:46:30.539Z,100.00
2022-09-23T00:49:26.645Z,100.00
2022-09-23T00:52:06.828Z,100.00
2022-09-23T00:54:34.257Z,100.00
2022-09-23T00:57:03.771Z,100.00
2022-09-23T00:59:32.143Z,100.00
2022-09-23T01:02:02.474Z,100.00
2022-09-23T01:04:30.612Z,100.00
2022-09-23T01:06:57.752Z,100.00
2022-09-23T01:09:25.559Z,100.00
2022-09-23T01:12:18.378Z,100.00
2022-09-23T01:15:07.000Z,100.00
2022-09-23T01:18:07.458Z,100.00
2022-09-23T01:21:00.397Z,100.00
2022-09-23T01:23:53.146Z,100.00
2022-09-23T01:26:47.225Z,100.00
2022-09-23T01:30:04.944Z,100.00
2022-09-23T01:32:52.963Z,100.00
2022-09-23T01:35:54.388Z,100.00
2022-09-23T01:38:40.104Z,100.00
2022-09-23T01:41:44.003Z,100.00
2022-09-23T01:44:22.977Z,100.00
2022-09-23T01:47:01.171Z,100.00
2022-09-23T01:49:54.167Z,100.00
2022-09-23T01:52:29.445Z,100.00
2022-09-23T01:55:20.822Z,100.00
2022-09-23T01:57:58.111Z,100.00
2022-09-23T02:00:29.673Z,100.00
2022-09-23T02:03:17.262Z,100.00
2022-09-23T02:05:53.988Z,100.00
2022-09-23T02:08:42.128Z,100.00
2022-09-23T02:11:14.917Z,100.00
2022-09-23T02:14:04.860Z,100.00
2022-09-23T02:16:47.616Z,100.00
2022-09-23T02:19:41.907Z,100.00
2022-09-23T02:22:18.640Z,100.00
2022-09-23T02:24:46.137Z,100.00
2022-09-23T02:27:51.375Z,100.00
2022-09-23T02:30:27.215Z,100.00
2022-09-23T02:33:07.957Z,100.00
2022-09-23T02:36:07.280Z,100.00
2022-09-23T02:38:38.935Z,100.00
2022-09-23T02:41:33.847Z,100.00
2022-09-23T02:44:09.018Z,100.00
2022-09-23T02:46:37.187Z,100.00
2022-09-23T02:49:20.649Z,100.00
2022-09-23T02:51:48.161Z,100.00
2022-09-23T02:54:20.928Z,100.00
2022-09-23T02:56:49.726Z,100.00
2022-09-23T02:59:19.612Z,100.00
2022-09-23T03:02:26.805Z,100.00
2022-09-23T03:05:19.082Z,100.00
2022-09-23T03:08:43.091Z,100.00
2022-09-23T03:11:13.844Z,100.00
2022-09-23T03:14:17.740Z,100.00
2022-09-23T03:17:10.629Z,100.00
2022-09-23T03:20:12.375Z,100.00
2022-09-23T03:22:53.823Z,100.00
2022-09-23T03:25:25.502Z,100.00
2022-09-23T03:27:58.010Z,100.00
2022-09-23T03:30:26.536Z,100.00
2022-09-23T03:32:57.719Z,100.00
2022-09-23T03:35:27.995Z,100.00
2022-09-23T03:38:16.149Z,100.00
2022-09-23T03:40:47.820Z,100.00
2022-09-23T03:43:15.320Z,100.00
2022-09-23T03:45:42.741Z,100.00
2022-09-23T03:48:10.433Z,100.00
2022-09-23T03:50:39.249Z,100.00
2022-09-23T03:53:07.053Z,100.00
2022-09-23T03:55:34.845Z,100.00
2022-09-23T03:58:04.879Z,100.00
2022-09-23T04:00:32.126Z,100.00
2022-09-23T04:02:59.277Z,100.00
2022-09-23T04:05:26.386Z,100.00
2022-09-23T04:07:55.104Z,100.00
2022-09-23T04:10:22.854Z,100.00
2022-09-23T04:12:50.113Z,100.00
2022-09-23T04:15:17.437Z,100.00
2022-09-23T04:17:44.626Z,100.00
2022-09-23T04:20:11.814Z,100.00
2022-09-23T04:22:39.050Z,100.00
2022-09-23T04:25:07.304Z,100.00
2022-09-23T04:27:37.769Z,100.00
2022-09-23T04:30:06.434Z,100.00
2022-09-23T04:32:33.599Z,100.00
2022-09-23T04:35:00.720Z,100.00
2022-09-23T04:37:27.945Z,100.00
2022-09-23T04:39:56.258Z,100.00
2022-09-23T04:42:23.540Z,100.00
2022-09-23T04:44:50.704Z,100.00
2022-09-23T04:47:19.355Z,100.00
2022-09-23T04:49:46.576Z,100.00
2022-09-23T04:52:13.838Z,100.00
2022-09-23T04:54:41.776Z,100.00
2022-09-23T04:57:11.168Z,100.00
2022-09-23T04:59:39.130Z,100.00
2022-09-23T05:02:06.399Z,100.00
2022-09-23T05:04:33.650Z,100.00
2022-09-23T05:07:03.372Z,100.00
2022-09-23T05:09:31.160Z,100.00
2022-09-23T05:11:58.297Z,100.00
2022-09-23T05:14:25.584Z,100.00
2022-09-23T05:16:52.761Z,100.00
2022-09-23T05:19:20.029Z,100.00
2022-09-23T05:21:47.229Z,100.00
2022-09-23T05:24:14.924Z,100.00
2022-09-23T05:26:42.358Z,100.00
2022-09-23T05:29:09.854Z,100.00
2022-09-23T05:31:37.200Z,100.00
2022-09-23T05:34:06.020Z,100.00
2022-09-23T05:36:38.708Z,100.00
2022-09-23T05:39:08.345Z,100.00
2022-09-23T05:41:36.064Z,100.00
2022-09-23T05:44:03.438Z,100.00
2022-09-23T05:46:31.821Z,100.00
2022-09-23T05:49:03.046Z,100.00
2022-09-23T05:51:32.412Z,100.00
2022-09-23T05:54:03.002Z,100.00
2022-09-23T05:56:31.093Z,100.00
2022-09-23T05:59:01.142Z,100.00
2022-09-23T06:01:35.421Z,100.00
2022-09-23T06:04:05.876Z,100.00
2022-09-23T06:06:42.277Z,100.00
2022-09-23T06:09:13.977Z,100.00
2022-09-23T06:11:42.115Z,100.00
2022-09-23T06:14:13.871Z,100.00
2022-09-23T06:16:41.220Z,100.00
2022-09-23T06:19:09.926Z,100.00
2022-09-23T06:21:39.514Z,100.00
2022-09-23T06:24:09.590Z,100.00
2022-09-23T06:26:38.371Z,100.00
2022-09-23T06:29:14.653Z,100.00
2022-09-23T06:31:43.475Z,100.00
2022-09-23T06:34:13.957Z,100.00
2022-09-23T06:36:45.467Z,100.00
2022-09-23T06:39:15.329Z,100.00
2022-09-23T06:41:43.915Z,100.00
2022-09-23T06:44:15.373Z,100.00
2022-09-23T06:46:43.886Z,100.00
2022-09-23T06:49:12.227Z,100.00
2022-09-23T06:51:40.326Z,100.00
2022-09-23T06:54:07.919Z,100.00
2022-09-23T06:56:39.191Z,100.00
2022-09-23T06:59:10.572Z,100.00
2022-09-23T07:01:38.355Z,100.00
2022-09-23T07:04:07.666Z,100.00
2022-09-23T07:06:35.494Z,100.00
2022-09-23T07:09:03.397Z,100.00
2022-09-23T07:11:30.798Z,100.00
2022-09-23T07:13:58.067Z,100.00
2022-09-23T07:16:27.217Z,100.00
2022-09-23T07:18:55.403Z,100.00
2022-09-23T07:21:22.653Z,100.00
2022-09-23T07:23:52.057Z,100.00
2022-09-23T07:26:20.617Z,100.00
2022-09-23T07:28:48.369Z,100.00
2022-09-23T07:31:30.613Z,100.00
2022-09-23T07:34:02.677Z,100.00
2022-09-23T07:36:32.904Z,100.00
2022-09-23T07:39:03.876Z,100.00
2022-09-23T07:41:33.307Z,100.00
2022-09-23T07:44:01.556Z,100.00
2022-09-23T07:46:32.542Z,100.00
2022-09-23T07:49:00.607Z,100.00
2022-09-23T07:51:37.337Z,100.00
2022-09-23T07:54:11.417Z,100.00
2022-09-23T07:56:39.449Z,100.00
2022-09-23T07:59:10.979Z,100.00
2022-09-23T08:01:42.314Z,100.00
2022-09-23T08:04:28.325Z,100.00
2022-09-23T08:06:59.445Z,100.00
2022-09-23T08:09:41.456Z,100.00
2022-09-23T08:12:16.184Z,100.00
2022-09-23T08:14:44.847Z,100.00
2022-09-23T08:17:13.217Z,100.00
2022-09-23T08:19:40.674Z,100.00
2022-09-23T08:22:07.954Z,100.00
2022-09-23T08:24:35.216Z,100.00
2022-09-23T08:27:02.371Z,100.00
2022-09-23T08:29:29.655Z,73.13
2022-09-23T08:31:57.077Z,51.03
2022-09-23T08:34:27.191Z,47.56
2022-09-23T08:36:54.440Z,46.26
2022-09-23T08:39:23.171Z,46.74
2022-09-23T08:42:21.991Z,49.76
2022-09-23T08:44:58.102Z,44.18
2022-09-23T08:47:35.694Z,39.56
2022-09-23T08:50:13.470Z,36.71
2022-09-23T08:53:02.835Z,35.07
2022-09-23T08:56:16.295Z,33.49
2022-09-23T08:59:10.600Z,32.28
2022-09-23T09:01:45.621Z,32.43
2022-09-23T09:04:22.899Z,31.04
2022-09-23T09:07:36.159Z,31.54
2022-09-23T09:10:35.706Z,30.60
2022-09-23T09:13:21.215Z,29.15
2022-09-23T09:16:07.110Z,27.16
2022-09-23T09:18:37.110Z,31.18
2022-09-23T09:21:37.578Z,32.26
2022-09-23T09:24:16.268Z,32.32
2022-09-23T09:26:43.511Z,32.82
2022-09-23T09:29:35.464Z,34.43
2022-09-23T09:32:35.315Z,39.82
2022-09-23T09:35:24.071Z,47.96
2022-09-23T09:37:53.493Z,52.01
2022-09-23T09:40:21.085Z,56.99
2022-09-23T09:42:50.586Z,53.86
2022-09-23T09:45:46.828Z,54.90
2022-09-23T09:48:37.841Z,58.02
2022-09-23T09:51:24.691Z,60.89
2022-09-23T09:53:52.671Z,61.46
2022-09-23T09:56:42.133Z,61.98
2022-09-23T09:59:16.457Z,64.11
2022-09-23T10:01:43.715Z,64.68
2022-09-23T10:04:33.861Z,64.24
2022-09-23T10:07:27.936Z,65.54
2022-09-23T10:10:01.806Z,62.79
2022-09-23T10:12:46.973Z,63.55
2022-09-23T10:15:33.377Z,61.74
2022-09-23T10:18:02.190Z,63.19
2022-09-23T10:20:38.043Z,60.13
2022-09-23T10:23:21.129Z,53.92
2022-09-23T10:26:05.435Z,42.20
2022-09-23T10:28:38.776Z,35.37
2022-09-23T10:31:25.057Z,33.19
2022-09-23T10:34:00.498Z,33.80
2022-09-23T10:36:31.313Z,30.85
2022-09-23T10:39:23.262Z,30.13
2022-09-23T10:42:37.591Z,31.42
2022-09-23T10:45:45.459Z,30.03
2022-09-23T10:48:34.186Z,30.70
2022-09-23T10:51:05.137Z,31.45
2022-09-23T10:54:03.256Z,30.05
2022-09-23T10:56:34.301Z,27.92
2022-09-23T10:59:48.953Z,32.33
2022-09-23T11:02:47.811Z,36.99
2022-09-23T11:05:36.038Z,38.21
2022-09-23T11:08:44.828Z,43.18
2022-09-23T11:12:03.607Z,46.14
2022-09-23T11:15:01.607Z,48.99
2022-09-23T11:17:59.403Z,51.81
2022-09-23T11:21:23.020Z,55.41
2022-09-23T11:24:12.221Z,54.08
2022-09-23T11:27:08.279Z,55.63
2022-09-23T11:29:54.813Z,56.21
2022-09-23T11:32:38.406Z,56.49
2022-09-23T11:35:15.365Z,59.36
2022-09-23T11:37:51.679Z,59.69
2022-09-23T11:40:34.423Z,57.58
2022-09-23T11:43:28.795Z,53.30
2022-09-23T11:46:04.544Z,56.18
2022-09-23T11:48:57.191Z,59.29
2022-09-23T11:51:43.359Z,59.05
2022-09-23T11:54:43.988Z,57.30
2022-09-23T11:57:48.848Z,56.78
2022-09-23T12:00:27.993Z,56.31
2022-09-23T12:03:09.591Z,54.55
2022-09-23T12:05:47.665Z,54.95
2022-09-23T12:08:50.217Z,44.47
2022-09-23T12:11:40.596Z,36.81
2022-09-23T12:14:31.136Z,35.31
2022-09-23T12:17:27.576Z,37.49
2022-09-23T12:20:41.533Z,35.98
2022-09-23T12:23:45.065Z,36.43
2022-09-23T12:26:20.659Z,36.40
2022-09-23T12:28:55.971Z,36.17
2022-09-23T12:31:37.979Z,39.18
2022-09-23T12:34:41.710Z,39.94
2022-09-23T12:37:08.960Z,41.48
2022-09-23T12:39:38.743Z,43.73
2022-09-23T12:42:18.672Z,45.90
2022-09-23T12:44:48.763Z,48.72
2022-09-23T12:47:25.192Z,51.98
2022-09-23T12:49:54.022Z,50.82
2022-09-23T12:52:25.499Z,49.53
2022-09-23T12:54:57.846Z,47.91
2022-09-23T12:57:34.103Z,46.13
2022-09-23T13:00:11.335Z,44.26
2022-09-23T13:02:47.544Z,43.48
2022-09-23T13:05:44.462Z,47.52
2022-09-23T13:08:23.562Z,47.38
2022-09-23T13:11:02.479Z,53.36
2022-09-23T13:13:45.804Z,47.96
2022-09-23T13:16:30.664Z,44.78
2022-09-23T13:18:59.723Z,47.09
2022-09-23T13:21:46.337Z,49.53
2022-09-23T13:24:13.584Z,45.46
2022-09-23T13:26:54.288Z,48.23
2022-09-23T13:29:33.390Z,51.51
2022-09-23T13:32:03.501Z,50.29
2022-09-23T13:34:38.700Z,49.54
2022-09-23T13:37:23.131Z,52.36
2022-09-23T13:39:51.200Z,56.28
2022-09-23T13:42:30.324Z,57.65
2022-09-23T13:44:59.135Z,58.83
2022-09-23T13:47:30.187Z,57.50
2022-09-23T13:49:57.920Z,55.96
2022-09-23T13:52:31.973Z,56.16
2022-09-23T13:54:59.325Z,55.37
2022-09-23T13:57:27.639Z,59.32
2022-09-23T13:59:55.086Z,58.88
2022-09-23T14:02:25.838Z,57.07
2022-09-23T14:05:10.864Z,58.32
2022-09-23T14:07:38.293Z,57.96
2022-09-23T14:10:08.211Z,59.44
2022-09-23T14:12:39.746Z,57.71
2022-09-23T14:15:17.443Z,56.67
2022-09-23T14:18:06.689Z,57.80
2022-09-23T14:20:47.251Z,58.18
2022-09-23T14:23:14.806Z,60.17
2022-09-23T14:25:44.741Z,69.39
2022-09-23T14:28:22.760Z,66.30
2022-09-23T14:30:53.902Z,60.50
2022-09-23T14:33:30.824Z,60.53
2022-09-23T14:36:29.231Z,61.31
2022-09-23T14:39:09.244Z,63.43
2022-09-23T14:41:44.462Z,56.79
2022-09-23T14:44:39.316Z,55.77
2022-09-23T14:47:11.619Z,63.29
2022-09-23T14:49:59.457Z,66.82
2022-09-23T14:52:26.791Z,62.09
2022-09-23T14:54:54.315Z,66.68
2022-09-23T14:57:29.976Z,64.15
2022-09-23T15:00:08.329Z,67.01
2022-09-23T15:02:43.444Z,68.28
2022-09-23T15:05:21.308Z,68.13
2022-09-23T15:07:58.073Z,67.86
2022-09-23T15:10:33.130Z,70.57
2022-09-23T15:13:23.967Z,74.38
2022-09-23T15:15:55.958Z,76.95
2022-09-23T15:18:25.925Z,74.37
2022-09-23T15:20:57.203Z,77.29
2022-09-23T15:23:45.284Z,80.58
2022-09-23T15:26:26.477Z,81.67
2022-09-23T15:28:56.285Z,83.00
2022-09-23T15:31:27.481Z,83.96
2022-09-23T15:33:56.092Z,81.46
2022-09-23T15:36:29.102Z,84.61
2022-09-23T15:39:01.205Z,82.36
2022-09-23T15:41:28.943Z,82.07
2022-09-23T15:43:56.676Z,87.90
2022-09-23T15:46:29.737Z,92.63
2022-09-23T15:49:09.389Z,92.09
2022-09-23T15:51:38.307Z,95.69
2022-09-23T15:54:14.844Z,96.15
2022-09-23T15:56:42.046Z,100.00
2022-09-23T15:59:09.340Z,100.00
2022-09-23T16:01:38.959Z,100.00
2022-09-23T16:04:06.254Z,100.00
2022-09-23T16:06:36.149Z,100.00
2022-09-23T16:09:03.789Z,100.00
2022-09-23T16:11:32.851Z,100.00
2022-09-23T16:14:00.879Z,100.00
2022-09-23T16:16:28.425Z,100.00
2022-09-23T16:18:55.874Z,100.00
2022-09-23T16:21:26.521Z,100.00
2022-09-23T16:23:54.788Z,100.00
2022-09-23T16:26:31.583Z,100.00
2022-09-23T16:28:59.793Z,100.00
2022-09-23T16:31:31.384Z,100.00
2022-09-23T16:34:02.187Z,100.00
2022-09-23T16:36:34.886Z,100.00
2022-09-23T16:39:06.025Z,100.00
2022-09-23T16:41:33.722Z,100.00
2022-09-23T16:44:04.509Z,100.00
2022-09-23T16:46:32.203Z,100.00
2022-09-23T16:49:00.457Z,100.00
2022-09-23T16:51:31.173Z,100.00
2022-09-23T16:53:59.424Z,100.00
2022-09-23T16:56:29.801Z,100.00
2022-09-23T16:58:57.228Z,100.00
2022-09-23T17:01:46.393Z,100.00
2022-09-23T17:04:16.144Z,100.00
2022-09-23T17:06:50.455Z,100.00
2022-09-23T17:09:20.790Z,100.00
2022-09-23T17:12:09.673Z,100.00
2022-09-23T17:14:37.331Z,100.00
2022-09-23T17:17:04.668Z,100.00
2022-09-23T17:19:33.920Z,100.00
2022-09-23T17:22:01.261Z,100.00
2022-09-23T17:24:28.435Z,100.00
2022-09-23T17:26:56.314Z,100.00
2022-09-23T17:29:23.668Z,100.00
2022-09-23T17:31:51.043Z,100.00
2022-09-23T17:34:19.415Z,100.00
2022-09-23T17:36:46.765Z,100.00
2022-09-23T17:39:14.101Z,100.00
2022-09-23T17:41:41.598Z,100.00
2022-09-23T17:44:11.453Z,100.00
2022-09-23T17:46:38.698Z,100.00
2022-09-23T17:49:07.734Z,100.00
2022-09-23T17:51:35.378Z,100.00
2022-09-23T17:54:02.591Z,100.00
2022-09-23T17:56:30.919Z,100.00
2022-09-23T17:59:01.974Z,100.00
2022-09-23T18:01:30.153Z,100.00
2022-09-23T18:04:05.614Z,100.00
2022-09-23T18:06:37.125Z,100.00
2022-09-23T18:09:07.208Z,100.00
2022-09-23T18:11:41.178Z,100.00
2022-09-23T18:14:18.749Z,100.00
2022-09-23T18:16:49.219Z,100.00
2022-09-23T18:19:19.471Z,100.00
2022-09-23T18:21:54.695Z,100.00
2022-09-23T18:24:37.927Z,100.00
2022-09-23T18:27:06.544Z,100.00
2022-09-23T18:29:34.725Z,100.00
2022-09-23T18:32:03.325Z,100.00
2022-09-23T18:34:30.633Z,100.00
2022-09-23T18:36:58.066Z,100.00
2022-09-23T18:39:25.439Z,100.00
2022-09-23T18:41:52.776Z,100.00
2022-09-23T18:44:20.326Z,100.00
2022-09-23T18:46:47.625Z,100.00
2022-09-23T18:49:33.701Z,100.00
2022-09-23T18:52:01.292Z,100.00
2022-09-23T18:54:29.362Z,100.00
2022-09-23T18:56:57.488Z,100.00
2022-09-23T18:59:29.782Z,100.00
2022-09-23T19:01:57.670Z,100.00
2022-09-23T19:04:26.691Z,100.00
2022-09-23T19:06:56.663Z,100.00
2022-09-23T19:09:24.576Z,100.00
2022-09-23T19:11:52.875Z,100.00
2022-09-23T19:14:20.371Z,100.00
2022-09-23T19:16:51.192Z,100.00
2022-09-23T19:19:18.473Z,100.00
2022-09-23T19:21:46.011Z,100.00
2022-09-23T19:24:16.183Z,100.00
2022-09-23T19:26:44.626Z,100.00
2022-09-23T19:29:19.615Z,100.00
2022-09-23T19:31:47.852Z,100.00
2022-09-23T19:34:29.172Z,100.00
2022-09-23T19:36:57.927Z,100.00
2022-09-23T19:39:31.325Z,100.00
2022-09-23T19:41:59.125Z,100.00
2022-09-23T19:44:27.252Z,100.00
2022-09-23T19:46:57.046Z,100.00
2022-09-23T19:49:25.875Z,100.00
2022-09-23T19:51:56.011Z,100.00
2022-09-23T19:54:26.639Z,100.00
2022-09-23T19:56:54.629Z,100.00
2022-09-23T19:59:21.932Z,100.00
2022-09-23T20:01:49.490Z,100.00
2022-09-23T20:04:17.355Z,100.00
2022-09-23T20:06:46.188Z,100.00
2022-09-23T20:09:13.703Z,100.00
2022-09-23T20:11:43.252Z,100.00
2022-09-23T20:14:11.997Z,100.00
2022-09-23T20:16:39.452Z,100.00
2022-09-23T20:19:06.804Z,100.00
2022-09-23T20:21:35.496Z,100.00
2022-09-23T20:24:07.748Z,100.00
2022-09-23T20:26:54.123Z,100.00
2022-09-23T20:29:21.538Z,100.00
2022-09-23T20:31:49.261Z,100.00
2022-09-23T20:34:16.659Z,100.00
2022-09-23T20:36:44.308Z,100.00
2022-09-23T20:39:11.889Z,100.00
2022-09-23T20:41:39.733Z,100.00
2022-09-23T20:44:14.114Z,100.00
2022-09-23T20:46:48.488Z,100.00
2022-09-23T20:49:17.745Z,100.00
2022-09-23T20:51:47.743Z,100.00
2022-09-23T20:54:19.350Z,100.00
2022-09-23T20:56:47.891Z,100.00
2022-09-23T20:59:17.750Z,100.00
2022-09-23T21:01:45.946Z,100.00
2022-09-23T21:04:13.387Z,100.00
2022-09-23T21:06:40.827Z,100.00
2022-09-23T21:09:08.901Z,100.00
2022-09-23T21:11:36.265Z,100.00
2022-09-23T21:14:03.817Z,100.00
2022-09-23T21:16:31.787Z,100.00
2022-09-23T21:18:59.504Z,100.00
2022-09-23T21:21:27.933Z,100.00
2022-09-23T21:24:03.561Z,100.00
2022-09-23T21:26:39.187Z,100.00
2022-09-23T21:29:06.841Z,100.00
2022-09-23T21:31:38.728Z,100.00
2022-09-23T21:34:09.236Z,100.00
2022-09-23T21:36:39.479Z,100.00
2022-09-23T21:39:09.269Z,100.00
2022-09-23T21:41:37.943Z,100.00
2022-09-23T21:44:06.695Z,100.00
2022-09-23T21:46:35.599Z,100.00
2022-09-23T21:49:04.215Z,100.00
2022-09-23T21:51:40.849Z,100.00
2022-09-23T21:54:14.421Z,100.00
2022-09-23T21:56:43.223Z,100.00
2022-09-23T21:59:10.807Z,100.00
2022-09-23T22:01:43.322Z,100.00
2022-09-23T22:04:19.278Z,100.00
2022-09-23T22:06:49.118Z,100.00
2022-09-23T22:09:19.740Z,100.00
2022-09-23T22:12:07.852Z,100.00
2022-09-23T22:14:35.767Z,100.00
2022-09-23T22:17:06.296Z,100.00
2022-09-23T22:19:40.281Z,100.00
2022-09-23T22:22:13.310Z,100.00
2022-09-23T22:24:42.609Z,100.00
2022-09-23T22:27:12.556Z,100.00
2022-09-23T22:29:58.393Z,100.00
2022-09-23T22:32:40.829Z,100.00
2022-09-23T22:35:19.359Z,100.00
2022-09-23T22:37:47.470Z,100.00
2022-09-23T22:40:15.838Z,100.00
2022-09-23T22:42:43.874Z,100.00
2022-09-23T22:45:12.461Z,100.00
2022-09-23T22:47:44.116Z,100.00
2022-09-23T22:50:13.985Z,100.00
2022-09-23T22:52:41.401Z,100.00
2022-09-23T22:55:09.529Z,100.00
2022-09-23T22:57:37.277Z,100.00
2022-09-23T23:00:09.523Z,100.00
2022-09-23T23:02:36.932Z,100.00
2022-09-23T23:05:04.349Z,100.00
2022-09-23T23:07:34.955Z,100.00
2022-09-23T23:10:04.098Z,100.00
2022-09-23T23:12:31.349Z,100.00
2022-09-23T23:14:58.590Z,100.00
2022-09-23T23:17:25.997Z,100.00
2022-09-23T23:19:53.831Z,100.00
2022-09-23T23:22:21.066Z,100.00
2022-09-23T23:24:48.294Z,100.00
2022-09-23T23:27:15.521Z,100.00
2022-09-23T23:29:45.653Z,100.00
2022-09-23T23:32:12.932Z,100.00
2022-09-23T23:34:40.073Z,100.00
2022-09-23T23:37:07.313Z,100.00
2022-09-23T23:39:34.899Z,100.00
2022-09-23T23:42:02.086Z,100.00
2022-09-23T23:44:31.220Z,100.00
2022-09-23T23:46:58.580Z,100.00
2022-09-23T23:49:25.936Z,100.00
2022-09-23T23:51:53.823Z,100.00
2022-09-23T23:54:21.163Z,100.00
2022-09-23T23:56:48.511Z,100.00
2022-09-23T23:59:15.795Z,100.00
